Time;durP1;ratioP1;P1;durP2;ratioP2;P2;SDS_P1;SDS_P2;PMS_P1;PMS_P2;Temp;Humidity;BMP_temperature;BMP_pressure;BME280_temperature;BME280_humidity;BME280_pressure;Samples;Min_cycle;Max_cycle;Signal;HPM_P1;HPM_P2
2021/03/18 00:00:28;;;;;;;9.97;7.23;;;2.60;99.90;;;;;;5088927;28;20398;-63
2021/03/18 00:02:54;;;;;;;12.77;6.63;;;2.60;99.90;;;;;;5090073;28;20395;-64
2021/03/18 00:05:20;;;;;;;8.90;6.80;;;2.50;99.90;;;;;;5088660;28;20398;-63
2021/03/18 00:07:45;;;;;;;10.70;6.77;;;2.50;99.90;;;;;;5089853;28;20184;-63
2021/03/18 00:10:12;;;;;;;11.93;7.90;;;2.50;99.90;;;;;;5088734;28;20692;-64
2021/03/18 00:12:38;;;;;;;12.47;6.50;;;2.40;99.90;;;;;;5090393;28;20200;-63
2021/03/18 00:15:07;;;;;;;15.40;7.57;;;2.50;99.90;;;;;;5088778;28;20893;-63
2021/03/18 00:17:33;;;;;;;9.23;7.33;;;2.40;99.90;;;;;;5088506;28;20168;-63
2021/03/18 00:19:59;;;;;;;9.07;7.10;;;2.40;99.90;;;;;;5089772;28;20483;-63
2021/03/18 00:22:24;;;;;;;10.40;9.00;;;2.40;99.90;;;;;;5089597;28;20495;-64
2021/03/18 00:24:50;;;;;;;14.70;7.80;;;2.40;99.90;;;;;;5089769;28;20189;-64
2021/03/18 00:27:15;;;;;;;12.27;7.97;;;2.40;99.90;;;;;;5089617;28;20172;-64
2021/03/18 00:29:41;;;;;;;9.90;7.67;;;2.40;99.90;;;;;;5092382;28;20187;-63
2021/03/18 00:32:07;;;;;;;9.97;7.83;;;2.30;99.90;;;;;;5109741;28;20209;-63
2021/03/18 00:34:32;;;;;;;13.10;7.63;;;2.30;99.90;;;;;;5109766;28;20235;-63
2021/03/18 00:36:58;;;;;;;12.07;8.17;;;2.30;99.90;;;;;;5109997;28;20426;-64
2021/03/18 00:39:23;;;;;;;9.97;7.50;;;2.30;99.90;;;;;;5109577;28;20174;-64
2021/03/18 00:41:49;;;;;;;12.63;7.67;;;2.30;99.90;;;;;;5109578;28;20182;-65
2021/03/18 00:44:14;;;;;;;12.43;7.47;;;2.30;99.90;;;;;;5097818;28;20618;-64
2021/03/18 00:46:40;;;;;;;13.00;7.97;;;2.20;99.90;;;;;;5095208;28;20205;-64
2021/03/18 00:49:07;;;;;;;8.40;7.60;;;2.20;99.90;;;;;;5095938;28;20165;-64
2021/03/18 00:51:33;;;;;;;12.77;8.17;;;2.20;99.90;;;;;;5095767;28;20197;-64
2021/03/18 00:53:59;;;;;;;12.13;8.17;;;2.20;99.90;;;;;;5094495;28;20397;-64
2021/03/18 00:56:25;;;;;;;11.60;7.80;;;2.20;99.90;;;;;;5096060;28;20629;-64
2021/03/18 00:58:50;;;;;;;10.37;8.27;;;2.20;99.90;;;;;;5095806;28;20175;-64
2021/03/18 01:01:22;;;;;;;14.60;7.57;;;2.10;99.90;;;;;;5095560;28;20813;-64
2021/03/18 01:03:47;;;;;;;9.23;8.00;;;2.10;99.90;;;;;;5093428;28;20259;-64
2021/03/18 01:08:49;;;;;;;11.00;8.50;;;2.10;99.90;;;;;;5151946;27;20505;-64
2021/03/18 01:11:18;;;;;;;11.17;8.03;;;2.10;99.90;;;;;;5152193;27;20472;-64
2021/03/18 01:13:47;;;;;;;13.63;8.00;;;2.10;99.90;;;;;;5152161;27;20390;-64
2021/03/18 01:16:18;;;;;;;16.27;8.43;;;2.10;99.90;;;;;;5116787;27;20405;-64
2021/03/18 01:18:56;;;;;;;9.57;8.40;;;2.10;99.90;;;;;;5151820;27;20432;-64
2021/03/18 01:21:26;;;;;;;12.67;8.73;;;2.10;99.90;;;;;;5151724;27;20404;-64
2021/03/18 01:23:52;;;;;;;12.10;8.10;;;2.10;99.90;;;;;;5133600;27;20463;-64
2021/03/18 01:26:17;;;;;;;9.30;7.03;;;2.00;99.90;;;;;;5151911;27;20459;-64
2021/03/18 01:28:43;;;;;;;7.90;7.10;;;2.10;99.90;;;;;;5115851;27;20195;-64
2021/03/18 01:31:10;;;;;;;8.27;6.70;;;2.10;99.90;;;;;;5133264;27;20156;-64
2021/03/18 01:33:37;;;;;;;23.60;9.23;;;2.10;99.90;;;;;;5133192;27;20469;-64
2021/03/18 01:36:07;;;;;;;12.63;7.67;;;2.10;99.90;;;;;;5151542;27;20762;-64
2021/03/18 01:38:32;;;;;;;11.20;7.63;;;2.20;99.90;;;;;;5133886;27;20776;-64
2021/03/18 01:40:59;;;;;;;12.30;10.03;;;2.10;99.90;;;;;;5133101;27;20389;-64
2021/03/18 01:43:27;;;;;;;10.60;8.00;;;2.20;99.90;;;;;;5151477;27;20156;-64
2021/03/18 01:45:53;;;;;;;10.13;7.97;;;2.20;99.90;;;;;;5151424;27;20905;-65
2021/03/18 01:48:19;;;;;;;11.40;7.67;;;2.20;99.90;;;;;;5151222;27;20524;-64
2021/03/18 01:50:46;;;;;;;12.33;8.80;;;2.20;99.90;;;;;;5132854;27;20400;-64
2021/03/18 01:53:12;;;;;;;11.10;9.00;;;2.20;99.90;;;;;;5151444;27;20384;-64
2021/03/18 01:55:40;;;;;;;12.27;8.23;;;2.20;99.90;;;;;;5131822;27;20413;-64
2021/03/18 01:58:07;;;;;;;17.80;8.63;;;2.30;99.90;;;;;;5151141;27;20393;-64
2021/03/18 02:00:34;;;;;;;9.60;7.77;;;2.30;99.90;;;;;;5132854;27;20385;-64
2021/03/18 02:03:00;;;;;;;11.33;8.37;;;2.30;99.90;;;;;;5151271;27;20882;-64
2021/03/18 02:05:27;;;;;;;13.10;7.93;;;2.30;99.90;;;;;;5151121;27;20462;-64
2021/03/18 02:07:54;;;;;;;13.10;8.17;;;2.30;99.90;;;;;;5151067;27;20998;-64
2021/03/18 02:10:24;;;;;;;14.17;9.50;;;2.30;99.90;;;;;;5150882;27;20389;-64
2021/03/18 02:12:51;;;;;;;11.47;8.00;;;2.30;99.90;;;;;;5131661;27;20413;-64
2021/03/18 02:15:19;;;;;;;10.10;7.30;;;2.30;99.90;;;;;;5150795;27;20397;-64
2021/03/18 02:17:53;;;;;;;11.83;8.47;;;2.30;99.90;;;;;;5132881;27;20885;-64
2021/03/18 02:25:46;;;;;;;13.53;8.97;;;2.30;99.90;;;;;;5131282;27;20508;-64
2021/03/18 02:28:51;;;;;;;9.77;8.10;;;2.20;99.90;;;;;;5131350;28;20383;-64
2021/03/18 02:31:57;;;;;;;11.03;9.03;;;2.20;99.90;;;;;;5109826;28;20385;-64
2021/03/18 02:37:37;;;;;;;11.43;8.70;;;2.20;99.90;;;;;;5110912;27;20516;-64
2021/03/18 02:40:10;;;;;;;15.67;9.20;;;2.10;99.90;;;;;;5110700;28;20938;-64
2021/03/18 02:42:37;;;;;;;13.40;9.60;;;2.10;99.90;;;;;;5109464;28;20486;-64
2021/03/18 02:45:05;;;;;;;13.73;9.70;;;2.00;99.90;;;;;;5110853;28;20404;-64
2021/03/18 02:47:34;;;;;;;29.40;15.57;;;2.00;99.90;;;;;;5092704;28;20431;-64
2021/03/18 02:50:00;;;;;;;26.53;15.20;;;2.00;99.90;;;;;;5088995;28;20380;-64
2021/03/18 02:52:29;;;;;;;25.93;15.70;;;2.00;99.90;;;;;;5090291;28;20910;-64
2021/03/18 02:54:57;;;;;;;20.67;12.90;;;1.90;99.90;;;;;;5090151;28;20397;-64
2021/03/18 02:57:25;;;;;;;14.80;10.43;;;1.90;99.90;;;;;;5089999;28;20442;-64
2021/03/18 02:59:53;;;;;;;15.13;10.20;;;1.90;99.90;;;;;;5089225;28;20753;-64
2021/03/18 03:02:22;;;;;;;16.67;10.30;;;1.80;99.90;;;;;;5090181;28;20384;-64
2021/03/18 03:04:49;;;;;;;11.37;9.73;;;1.80;99.90;;;;;;5090293;28;20408;-64
2021/03/18 03:07:17;;;;;;;14.07;9.03;;;1.80;99.90;;;;;;5088736;28;20388;-64
2021/03/18 03:09:45;;;;;;;13.93;10.10;;;1.80;99.90;;;;;;5088610;28;20529;-64
2021/03/18 03:12:11;;;;;;;13.40;9.63;;;1.80;99.90;;;;;;5088976;28;20392;-64
2021/03/18 03:14:39;;;;;;;10.00;8.93;;;1.80;99.90;;;;;;5089744;28;20385;-64
2021/03/18 03:17:06;;;;;;;10.90;9.47;;;1.70;99.90;;;;;;5089485;28;20452;-64
2021/03/18 03:19:36;;;;;;;16.33;9.00;;;1.70;99.90;;;;;;5090743;28;20944;-64
2021/03/18 03:22:04;;;;;;;11.37;8.70;;;1.70;99.90;;;;;;5089837;28;20755;-64
2021/03/18 03:24:33;;;;;;;15.33;9.53;;;1.70;99.90;;;;;;5089588;28;20495;-64
2021/03/18 03:27:00;;;;;;;15.63;9.07;;;1.70;99.90;;;;;;5089452;28;20409;-64
2021/03/18 03:29:26;;;;;;;9.77;8.80;;;1.70;99.90;;;;;;5089760;28;20406;-64
2021/03/18 03:31:52;;;;;;;10.10;9.10;;;1.70;99.90;;;;;;5089491;28;20393;-64
2021/03/18 03:34:18;;;;;;;14.37;10.23;;;1.70;99.90;;;;;;5089416;28;20907;-64
2021/03/18 03:36:46;;;;;;;12.80;9.40;;;1.70;99.90;;;;;;5091728;28;20979;-64
2021/03/18 03:39:12;;;;;;;12.20;9.20;;;1.70;99.90;;;;;;5108533;28;20391;-64
2021/03/18 03:41:38;;;;;;;12.03;9.43;;;1.70;99.90;;;;;;5110016;28;20410;-64
2021/03/18 03:44:05;;;;;;;13.63;8.93;;;1.60;99.90;;;;;;5109557;28;20392;-64
2021/03/18 03:46:30;;;;;;;11.40;10.13;;;1.60;99.90;;;;;;5108279;28;20788;-64
2021/03/18 03:48:56;;;;;;;11.37;9.30;;;1.60;99.90;;;;;;5096528;28;20394;-65
2021/03/18 03:51:22;;;;;;;18.00;9.40;;;1.60;99.90;;;;;;5095910;28;20163;-65
2021/03/18 03:53:52;;;;;;;12.00;9.67;;;1.60;99.90;;;;;;5094934;28;20184;-66
2021/03/18 03:56:27;;;;;;;11.00;9.97;;;1.50;99.90;;;;;;5094619;28;20180;-65
2021/03/18 03:58:58;;;;;;;10.67;9.57;;;1.50;99.90;;;;;;5095770;28;20964;-65
2021/03/18 04:04:04;;;;;;;12.90;10.20;;;1.50;99.90;;;;;;5111105;27;20503;-65
2021/03/18 04:06:35;;;;;;;11.03;9.83;;;1.50;99.90;;;;;;5093005;28;20399;-65
2021/03/18 04:09:02;;;;;;;11.33;9.80;;;1.50;99.90;;;;;;5110879;28;20443;-65
2021/03/18 04:11:28;;;;;;;12.97;9.77;;;1.50;99.90;;;;;;5101272;28;20418;-66
2021/03/18 04:13:54;;;;;;;16.13;10.47;;;1.50;99.90;;;;;;5090245;28;20823;-65
2021/03/18 04:16:22;;;;;;;17.50;11.70;;;1.40;99.90;;;;;;5090218;28;20474;-65
2021/03/18 04:18:50;;;;;;;13.17;11.77;;;1.40;99.90;;;;;;5090317;28;20385;-65
2021/03/18 04:21:17;;;;;;;14.07;11.23;;;1.40;99.90;;;;;;5090234;28;20444;-65
2021/03/18 04:23:43;;;;;;;18.30;12.60;;;1.40;99.90;;;;;;5090130;28;20494;-65
2021/03/18 04:26:10;;;;;;;16.63;11.70;;;1.40;99.90;;;;;;5090029;28;20939;-65
2021/03/18 04:28:36;;;;;;;15.07;11.37;;;1.40;99.90;;;;;;5074930;28;20495;-65
2021/03/18 04:31:05;;;;;;;14.87;10.50;;;1.30;99.90;;;;;;5110226;28;20815;-65
2021/03/18 04:33:32;;;;;;;17.77;11.97;;;1.30;99.90;;;;;;5110534;28;20945;-65
2021/03/18 04:35:58;;;;;;;14.10;10.60;;;1.30;99.90;;;;;;5110182;28;20397;-65
2021/03/18 04:38:26;;;;;;;15.90;11.50;;;1.30;99.90;;;;;;5110166;28;20398;-65
2021/03/18 04:40:53;;;;;;;14.30;11.90;;;1.30;99.90;;;;;;5110054;28;20505;-65
2021/03/18 04:43:19;;;;;;;16.93;11.73;;;1.30;99.90;;;;;;5110047;28;20433;-65
2021/03/18 04:45:46;;;;;;;12.80;11.57;;;1.30;99.90;;;;;;5109439;28;20424;-65
2021/03/18 04:48:13;;;;;;;15.67;12.97;;;1.30;99.90;;;;;;5110252;28;20408;-65
2021/03/18 04:50:39;;;;;;;20.37;14.20;;;1.30;99.90;;;;;;5107371;28;20399;-65
2021/03/18 04:53:04;;;;;;;17.87;14.33;;;1.30;99.90;;;;;;5104197;28;20518;-65
2021/03/18 04:55:30;;;;;;;16.77;13.90;;;1.30;99.90;;;;;;5094623;28;20418;-65
2021/03/18 04:58:00;;;;;;;17.50;13.87;;;1.30;99.90;;;;;;5094868;28;20544;-65
2021/03/18 05:00:28;;;;;;;16.30;14.47;;;1.30;99.90;;;;;;5105962;28;20181;-65
2021/03/18 05:02:56;;;;;;;16.43;14.43;;;1.40;99.90;;;;;;5102144;28;20882;-65
2021/03/18 05:05:22;;;;;;;16.97;15.17;;;1.50;99.90;;;;;;5099883;28;20484;-65
2021/03/18 05:07:50;;;;;;;18.33;15.40;;;1.60;99.90;;;;;;5096431;28;20507;-65
2021/03/18 05:10:19;;;;;;;18.50;15.30;;;1.60;99.90;;;;;;5093930;28;20767;-65
2021/03/18 05:12:45;;;;;;;23.57;15.30;;;1.60;99.90;;;;;;5100844;28;20456;-65
2021/03/18 05:15:14;;;;;;;18.90;15.37;;;1.70;99.90;;;;;;5090946;28;20461;-65
2021/03/18 05:17:40;;;;;;;18.73;15.93;;;1.70;99.90;;;;;;5086046;28;20401;-65
2021/03/18 05:20:07;;;;;;;23.20;16.50;;;1.70;99.90;;;;;;5080819;28;20416;-66
2021/03/18 05:22:33;;;;;;;17.73;14.87;;;1.70;99.90;;;;;;5075350;28;20439;-65
2021/03/18 05:25:02;;;;;;;19.97;14.03;;;1.70;99.90;;;;;;5075448;28;20416;-65
2021/03/18 05:27:28;;;;;;;18.10;15.10;;;1.70;99.90;;;;;;5080296;28;20558;-65
2021/03/18 05:29:53;;;;;;;17.60;15.60;;;1.80;99.90;;;;;;5075651;28;20446;-66
2021/03/18 05:32:19;;;;;;;17.13;14.90;;;1.80;99.90;;;;;;5083555;28;20216;-66
2021/03/18 05:34:44;;;;;;;20.43;14.50;;;1.80;99.90;;;;;;5087393;28;20535;-66
2021/03/18 05:37:10;;;;;;;21.50;15.30;;;1.80;99.90;;;;;;5079899;28;20271;-66
2021/03/18 05:39:35;;;;;;;16.00;13.23;;;1.80;99.90;;;;;;5085122;28;20170;-66
2021/03/18 05:42:02;;;;;;;16.13;13.70;;;1.80;99.90;;;;;;5075223;28;20178;-66
2021/03/18 05:44:28;;;;;;;15.60;12.50;;;1.80;99.90;;;;;;5091122;28;20177;-66
2021/03/18 05:46:53;;;;;;;19.00;14.73;;;1.80;99.90;;;;;;5086382;28;20436;-66
2021/03/18 05:49:19;;;;;;;18.67;13.77;;;1.80;99.90;;;;;;5083374;28;20183;-66
2021/03/18 05:51:49;;;;;;;17.20;14.20;;;1.80;99.90;;;;;;5079534;28;20187;-66
2021/03/18 05:54:18;;;;;;;22.17;14.13;;;1.80;99.90;;;;;;5080992;28;20453;-66
2021/03/18 05:56:43;;;;;;;16.77;14.37;;;1.90;99.90;;;;;;5075037;28;20382;-66
2021/03/18 05:59:11;;;;;;;17.60;14.47;;;1.90;99.90;;;;;;5074857;28;20421;-66
2021/03/18 06:01:40;;;;;;;16.13;13.40;;;2.00;99.90;;;;;;5078606;28;20179;-66
2021/03/18 06:04:06;;;;;;;19.67;14.93;;;2.00;99.90;;;;;;5085269;28;20422;-66
2021/03/18 06:06:34;;;;;;;15.03;12.40;;;2.10;99.90;;;;;;5095230;28;20482;-66
2021/03/18 06:09:00;;;;;;;16.50;13.40;;;2.20;99.90;;;;;;5095123;28;20414;-66
2021/03/18 06:11:25;;;;;;;17.63;14.10;;;2.30;99.90;;;;;;5087355;28;20501;-66
2021/03/18 06:13:51;;;;;;;17.20;13.07;;;2.30;99.90;;;;;;5074732;28;20949;-66
2021/03/18 06:16:17;;;;;;;16.97;13.33;;;2.30;99.90;;;;;;5074672;28;20184;-66
2021/03/18 06:18:43;;;;;;;18.13;12.70;;;2.40;99.90;;;;;;5074630;28;20166;-66
2021/03/18 06:21:09;;;;;;;18.07;14.00;;;2.40;99.90;;;;;;5074510;28;20403;-66
2021/03/18 06:23:35;;;;;;;15.40;13.03;;;2.50;99.90;;;;;;5074750;28;20550;-66
2021/03/18 06:26:01;;;;;;;15.23;13.43;;;2.50;99.90;;;;;;5073435;28;20603;-66
2021/03/18 06:28:29;;;;;;;19.73;13.60;;;2.60;99.90;;;;;;5074903;28;20613;-66
2021/03/18 06:39:17;;;;;;;15.70;12.70;;;2.60;99.90;;;;;;5131659;27;20501;-65
2021/03/18 06:41:47;;;;;;;15.10;13.20;;;2.90;99.90;;;;;;5131445;27;20457;-65
2021/03/18 06:47:07;;;;;;;14.57;12.10;;;3.00;99.90;;;;;;5110796;27;20526;-65
2021/03/18 06:49:32;;;;;;;17.83;12.83;;;3.20;99.90;;;;;;5111002;28;20380;-65
2021/03/18 06:52:08;;;;;;;15.63;12.27;;;3.20;99.90;;;;;;5110894;28;20479;-65
2021/03/18 06:54:55;;;;;;;15.60;13.77;;;3.30;99.90;;;;;;5107857;28;20207;-65
2021/03/18 06:57:20;;;;;;;19.10;12.93;;;3.40;99.90;;;;;;5093778;28;20454;-65
2021/03/18 06:59:46;;;;;;;17.00;13.23;;;3.50;99.90;;;;;;5090911;28;20406;-65
2021/03/18 07:02:17;;;;;;;18.00;13.60;;;3.60;99.90;;;;;;5094749;28;20232;-65
2021/03/18 07:07:25;;;;;;;14.30;12.53;;;3.80;99.90;;;;;;5088273;27;20592;-66
2021/03/18 07:09:53;;;;;;;16.40;13.00;;;3.90;99.90;;;;;;5080938;28;20393;-66
2021/03/18 07:12:27;;;;;;;14.17;12.63;;;3.90;99.90;;;;;;5080425;28;20404;-66
2021/03/18 07:14:56;;;;;;;16.70;13.70;;;4.00;99.90;;;;;;5089597;28;20862;-66
2021/03/18 07:17:38;;;;;;;14.93;13.33;;;4.10;99.90;;;;;;5087905;28;20389;-66
2021/03/18 07:20:24;;;;;;;19.00;13.50;;;4.30;99.90;;;;;;5063982;28;20409;-66
2021/03/18 07:22:53;;;;;;;13.87;12.23;;;4.40;99.90;;;;;;5084484;28;20452;-66
2021/03/18 07:25:22;;;;;;;16.70;12.80;;;4.50;99.90;;;;;;5068920;28;20442;-66
2021/03/18 07:27:50;;;;;;;14.70;12.10;;;4.60;99.90;;;;;;5067830;28;20433;-66
2021/03/18 07:30:34;;;;;;;14.70;12.67;;;4.60;99.90;;;;;;5067938;28;20394;-66
2021/03/18 07:33:00;;;;;;;20.33;14.60;;;4.80;99.90;;;;;;5066638;28;20390;-66
2021/03/18 07:35:27;;;;;;;20.67;13.40;;;4.90;99.90;;;;;;5066071;28;20475;-66
2021/03/18 07:37:54;;;;;;;16.17;14.10;;;5.10;99.90;;;;;;5070477;28;20413;-66
2021/03/18 07:40:21;;;;;;;19.00;13.67;;;5.20;99.90;;;;;;5076150;28;20421;-66
2021/03/18 07:42:49;;;;;;;15.83;13.07;;;5.30;99.90;;;;;;5082943;28;20802;-66
2021/03/18 07:45:17;;;;;;;16.93;12.90;;;5.50;99.90;;;;;;5079428;28;21064;-66
2021/03/18 07:47:44;;;;;;;15.37;12.93;;;5.60;99.90;;;;;;5077734;28;20456;-66
2021/03/18 07:50:11;;;;;;;19.37;14.80;;;5.70;99.90;;;;;;5089611;28;20398;-66
2021/03/18 07:52:42;;;;;;;13.13;11.83;;;5.90;99.90;;;;;;5078240;28;20419;-67
2021/03/18 07:55:11;;;;;;;14.20;12.80;;;6.00;99.90;;;;;;5068273;28;20475;-66
2021/03/18 07:57:49;;;;;;;16.07;12.60;;;6.10;99.90;;;;;;5069656;28;20752;-66
2021/03/18 08:00:17;;;;;;;16.60;13.13;;;6.30;99.90;;;;;;5077709;28;20409;-66
2021/03/18 08:02:43;;;;;;;15.70;12.97;;;6.40;99.90;;;;;;5081876;28;20492;-66
2021/03/18 08:05:09;;;;;;;14.20;12.80;;;6.50;99.90;;;;;;5079529;28;20975;-66
2021/03/18 08:13:04;;;;;;;15.20;13.03;;;6.90;99.90;;;;;;5090490;28;20518;-66
2021/03/18 08:26:07;;;;;;;15.10;13.50;;;7.00;99.90;;;;;;5109663;27;20511;-65
2021/03/18 08:34:09;;;;;;;14.83;12.03;;;7.60;99.90;;;;;;5131010;27;20545;-65
2021/03/18 08:36:37;;;;;;;14.47;12.57;;;7.80;99.90;;;;;;5131268;27;20393;-65
2021/03/18 08:41:44;;;;;;;19.83;12.73;;;7.80;99.90;;;;;;5113191;27;20506;-66
2021/03/18 08:44:29;;;;;;;19.37;12.43;;;7.80;99.90;;;;;;5095383;28;20425;-66
2021/03/18 08:52:19;;;;;;;17.53;12.90;;;7.90;99.90;;;;;;5126061;27;20551;-65
2021/03/18 09:00:00;;;;;;;23.40;14.63;;;8.20;99.90;;;;;;5122754;27;20584;-66
2021/03/18 09:02:32;;;;;;;15.50;10.07;;;8.60;99.90;;;;;;5108477;28;20414;-66
2021/03/18 09:04:59;;;;;;;22.87;10.37;;;8.70;99.90;;;;;;5107374;28;20426;-66
2021/03/18 09:07:27;;;;;;;16.23;9.80;;;8.90;99.90;;;;;;5112431;28;20936;-66
2021/03/18 09:18:19;;;;;;;12.43;10.63;;;9.10;99.90;;;;;;5107124;27;20525;-66
2021/03/18 09:23:26;;;;;;;16.93;10.60;;;9.20;99.90;;;;;;5130860;27;20921;-66
2021/03/18 09:25:57;;;;;;;16.27;11.93;;;9.20;99.90;;;;;;5129276;27;20415;-66
2021/03/18 09:28:23;;;;;;;16.50;9.27;;;9.30;99.90;;;;;;5127582;28;20430;-66
2021/03/18 09:30:52;;;;;;;15.13;10.47;;;9.40;99.90;;;;;;5127017;27;20411;-66
2021/03/18 09:33:30;;;;;;;13.73;10.80;;;9.40;99.90;;;;;;5128867;27;20181;-66
2021/03/18 09:36:01;;;;;;;18.17;12.93;;;9.40;99.90;;;;;;5129647;28;20442;-66
2021/03/18 09:38:30;;;;;;;16.23;13.33;;;9.40;99.90;;;;;;5126309;27;20426;-66
2021/03/18 09:40:58;;;;;;;23.43;13.40;;;9.40;99.90;;;;;;5130968;27;20422;-66
2021/03/18 09:43:25;;;;;;;26.70;17.10;;;9.40;99.90;;;;;;5130794;28;20403;-66
2021/03/18 09:48:38;;;;;;;20.93;15.57;;;9.50;99.90;;;;;;5131154;27;20565;-65
2021/03/18 09:51:10;;;;;;;22.37;16.63;;;9.50;99.90;;;;;;5125222;28;20941;-65
2021/03/18 09:53:37;;;;;;;23.57;15.87;;;9.50;99.90;;;;;;5123535;28;20398;-65
2021/03/18 09:56:05;;;;;;;30.40;17.10;;;9.60;99.90;;;;;;5131138;28;20411;-65
2021/03/18 09:58:31;;;;;;;21.03;15.53;;;9.60;99.90;;;;;;5131411;28;20383;-66
2021/03/18 10:00:57;;;;;;;19.37;14.67;;;9.50;99.90;;;;;;5131239;28;20380;-66
2021/03/18 10:03:22;;;;;;;19.33;15.60;;;9.50;99.90;;;;;;5131175;28;20166;-65
2021/03/18 10:05:48;;;;;;;22.30;16.97;;;9.60;99.90;;;;;;5120548;27;20174;-66
2021/03/18 10:08:13;;;;;;;17.17;14.70;;;9.60;99.90;;;;;;5110907;28;20678;-66
2021/03/18 10:10:39;;;;;;;18.03;15.67;;;9.60;99.90;;;;;;5112097;28;20162;-66
2021/03/18 10:13:05;;;;;;;17.57;15.87;;;9.60;99.90;;;;;;5131260;28;20237;-66
2021/03/18 10:15:31;;;;;;;23.80;17.27;;;9.60;99.90;;;;;;5114552;27;20181;-66
2021/03/18 10:17:58;;;;;;;24.10;18.20;;;9.60;99.90;;;;;;5110449;28;20392;-66
2021/03/18 10:20:28;;;;;;;22.60;18.73;;;9.50;99.90;;;;;;5110771;28;20875;-66
2021/03/18 10:23:01;;;;;;;23.20;18.80;;;9.50;99.90;;;;;;5124947;28;20495;-67
2021/03/18 10:25:28;;;;;;;40.63;20.50;;;9.50;99.90;;;;;;5129952;27;20403;-65
2021/03/18 10:28:11;;;;;;;22.93;18.67;;;9.40;99.90;;;;;;5130582;27;20461;-65
2021/03/18 10:30:39;;;;;;;22.07;19.10;;;9.30;99.90;;;;;;5129453;28;20394;-65
2021/03/18 10:38:34;;;;;;;25.43;19.93;;;9.40;99.90;;;;;;5131579;27;20534;-67
2021/03/18 10:43:43;;;;;;;22.93;17.77;;;9.50;99.90;;;;;;5111566;27;21126;-66
2021/03/18 10:46:11;;;;;;;18.90;16.90;;;9.60;99.90;;;;;;5091242;28;20459;-66
2021/03/18 10:48:38;;;;;;;20.60;17.53;;;9.70;99.90;;;;;;5090437;28;20397;-66
2021/03/18 10:53:44;;;;;;;22.80;18.70;;;9.70;99.90;;;;;;5131507;27;21042;-66
2021/03/18 10:56:13;;;;;;;25.80;18.10;;;9.80;99.90;;;;;;5131307;27;20379;-66
2021/03/18 10:58:40;;;;;;;18.77;16.97;;;9.80;99.90;;;;;;5128687;27;20730;-66
2021/03/18 11:01:09;;;;;;;18.23;16.33;;;9.90;99.90;;;;;;5115687;28;20855;-66
2021/03/18 11:03:38;;;;;;;19.63;17.17;;;10.00;99.90;;;;;;5116816;27;20408;-66
2021/03/18 11:06:22;;;;;;;17.37;15.57;;;10.00;99.90;;;;;;5120428;28;20459;-66
2021/03/18 11:08:50;;;;;;;17.97;16.10;;;9.90;99.90;;;;;;5124558;27;20473;-66
2021/03/18 11:11:18;;;;;;;21.57;16.83;;;9.70;99.90;;;;;;5130973;27;20724;-66
2021/03/18 11:13:45;;;;;;;24.80;17.17;;;9.70;99.90;;;;;;5109454;28;20877;-66
2021/03/18 11:16:19;;;;;;;19.83;17.43;;;9.70;99.90;;;;;;5111077;28;20400;-66
2021/03/18 11:18:45;;;;;;;21.20;17.10;;;9.60;99.90;;;;;;5110670;28;20385;-66
2021/03/18 11:26:43;;;;;;;18.90;16.20;;;9.90;99.90;;;;;;5131554;27;20533;-65
2021/03/18 11:29:12;;;;;;;21.37;16.50;;;9.90;99.90;;;;;;5120188;27;21420;-65
2021/03/18 11:31:42;;;;;;;18.40;14.77;;;9.90;99.90;;;;;;5122407;27;20409;-65
2021/03/18 11:34:19;;;;;;;17.67;13.90;;;9.90;99.90;;;;;;5111742;28;20396;-65
2021/03/18 11:36:47;;;;;;;19.20;14.00;;;9.90;99.90;;;;;;5115838;28;20996;-65
2021/03/18 11:39:14;;;;;;;18.50;14.90;;;9.90;99.90;;;;;;5118036;27;20502;-65
2021/03/18 11:41:40;;;;;;;15.70;13.90;;;9.90;99.90;;;;;;5121622;28;20427;-65
2021/03/18 11:44:06;;;;;;;14.23;12.80;;;9.90;99.90;;;;;;5117135;28;20752;-65
2021/03/18 11:46:32;;;;;;;17.37;13.40;;;9.90;99.90;;;;;;5118881;27;20208;-65
2021/03/18 11:48:58;;;;;;;13.70;12.30;;;9.90;99.90;;;;;;5123206;28;20465;-65
2021/03/18 11:51:23;;;;;;;14.00;11.93;;;9.90;99.90;;;;;;5130300;27;20407;-65
2021/03/18 11:53:50;;;;;;;13.83;11.17;;;9.90;99.90;;;;;;5116688;27;21045;-65
2021/03/18 11:56:17;;;;;;;13.03;8.37;;;10.00;99.90;;;;;;5110237;28;20170;-65
2021/03/18 11:58:42;;;;;;;10.10;9.10;;;10.20;99.90;;;;;;5110235;28;20391;-65
2021/03/18 12:01:08;;;;;;;13.47;10.47;;;10.30;99.90;;;;;;5110324;28;20389;-65
2021/03/18 12:03:34;;;;;;;12.03;10.17;;;10.30;99.90;;;;;;5110483;28;20611;-65
2021/03/18 12:05:59;;;;;;;11.57;9.43;;;10.30;99.70;;;;;;5109948;28;20432;-65
2021/03/18 12:08:25;;;;;;;10.73;8.57;;;10.30;99.90;;;;;;5110749;28;20170;-65
2021/03/18 12:10:50;;;;;;;12.03;9.90;;;10.20;99.90;;;;;;5110337;28;20527;-65
2021/03/18 12:13:16;;;;;;;11.87;8.30;;;10.10;99.90;;;;;;5110153;28;20155;-65
2021/03/18 12:15:43;;;;;;;11.47;7.97;;;9.90;99.90;;;;;;5110056;28;20161;-65
2021/03/18 12:18:09;;;;;;;10.07;6.97;;;9.80;99.90;;;;;;5109992;28;20689;-65
2021/03/18 12:20:35;;;;;;;7.20;6.50;;;9.60;99.90;;;;;;5109988;28;20479;-65
2021/03/18 12:23:00;;;;;;;6.60;5.20;;;9.50;99.90;;;;;;5109933;28;20184;-65
2021/03/18 12:25:26;;;;;;;7.97;5.77;;;9.40;99.90;;;;;;5110268;28;20255;-65
2021/03/18 12:27:53;;;;;;;5.80;4.80;;;9.30;99.90;;;;;;5109742;28;20658;-65
2021/03/18 12:30:22;;;;;;;6.47;4.87;;;9.30;99.90;;;;;;5109686;28;20153;-65
2021/03/18 12:32:48;;;;;;;6.97;4.50;;;9.30;99.90;;;;;;5109629;28;20868;-65
2021/03/18 12:35:15;;;;;;;8.53;4.37;;;9.20;99.90;;;;;;5109673;28;20755;-65
2021/03/18 12:37:41;;;;;;;7.70;4.30;;;9.10;99.90;;;;;;5098199;28;20401;-65
2021/03/18 12:40:08;;;;;;;6.70;4.23;;;9.10;99.90;;;;;;5095864;28;20478;-65
2021/03/18 12:42:34;;;;;;;5.10;3.80;;;9.10;99.90;;;;;;5114508;28;20413;-66
2021/03/18 12:45:00;;;;;;;7.03;3.60;;;9.00;99.90;;;;;;5115571;28;20544;-65
2021/03/18 12:47:26;;;;;;;5.03;4.00;;;9.00;99.90;;;;;;5104899;28;20839;-65
2021/03/18 12:49:52;;;;;;;7.77;4.37;;;9.00;99.90;;;;;;5116322;28;20223;-65
2021/03/18 12:52:17;;;;;;;7.83;4.40;;;9.10;99.90;;;;;;5105961;28;20899;-65
2021/03/18 12:54:43;;;;;;;6.40;4.33;;;9.10;99.90;;;;;;5095833;28;20594;-65
2021/03/18 12:57:09;;;;;;;8.30;4.10;;;9.10;99.90;;;;;;5095815;28;20162;-65
2021/03/18 12:59:35;;;;;;;4.13;3.73;;;9.20;99.90;;;;;;5096032;28;20220;-65
2021/03/18 13:02:01;;;;;;;7.13;3.93;;;9.30;99.90;;;;;;5095416;28;20177;-65
2021/03/18 13:04:26;;;;;;;6.70;4.10;;;9.30;99.90;;;;;;5095415;28;20520;-65
2021/03/18 13:06:52;;;;;;;5.20;3.97;;;9.40;99.90;;;;;;5094183;28;20419;-65
2021/03/18 13:09:20;;;;;;;5.07;4.33;;;9.30;99.90;;;;;;5095426;28;20178;-65
2021/03/18 13:11:45;;;;;;;4.40;3.73;;;9.40;99.90;;;;;;5107236;28;20456;-65
2021/03/18 13:14:11;;;;;;;5.17;3.90;;;9.40;99.90;;;;;;5115766;28;20902;-65
2021/03/18 13:16:36;;;;;;;4.53;4.07;;;9.40;99.90;;;;;;5114818;28;20180;-65
2021/03/18 13:19:02;;;;;;;7.27;4.30;;;9.40;99.90;;;;;;5115679;28;20298;-65
2021/03/18 13:21:28;;;;;;;7.47;4.40;;;9.40;99.90;;;;;;5115625;28;20170;-65
2021/03/18 13:23:53;;;;;;;5.30;3.70;;;9.40;99.90;;;;;;5115759;28;20519;-65
2021/03/18 13:26:19;;;;;;;3.93;3.40;;;9.40;99.70;;;;;;5115280;28;20208;-65
2021/03/18 13:28:44;;;;;;;6.73;4.40;;;9.40;99.30;;;;;;5102719;28;20175;-65
2021/03/18 13:31:10;;;;;;;8.33;4.90;;;9.40;98.90;;;;;;5094823;28;20273;-65
2021/03/18 13:33:36;;;;;;;5.60;5.03;;;9.30;99.60;;;;;;5095587;28;20174;-65
2021/03/18 13:36:02;;;;;;;7.87;5.00;;;9.30;99.90;;;;;;5095252;28;20212;-65
2021/03/18 13:38:27;;;;;;;6.20;5.60;;;9.30;99.80;;;;;;5094894;28;20219;-65
2021/03/18 13:40:54;;;;;;;6.57;5.87;;;9.40;99.90;;;;;;5094881;28;20186;-65
2021/03/18 13:43:21;;;;;;;9.93;6.97;;;9.40;99.90;;;;;;5094653;28;20404;-65
2021/03/18 13:45:47;;;;;;;9.40;8.43;;;9.40;99.90;;;;;;5094690;28;20460;-65
2021/03/18 13:48:15;;;;;;;10.97;9.87;;;9.40;99.90;;;;;;5093615;28;20457;-65
2021/03/18 13:50:48;;;;;;;13.40;10.90;;;9.40;99.90;;;;;;5094304;28;20401;-65
2021/03/18 13:53:14;;;;;;;15.40;12.20;;;9.30;99.90;;;;;;5093429;28;20491;-65
2021/03/18 13:55:40;;;;;;;15.57;13.73;;;9.20;99.90;;;;;;5100798;28;21014;-65
2021/03/18 13:58:05;;;;;;;18.40;14.90;;;9.10;99.90;;;;;;5113954;28;20768;-65
2021/03/18 14:00:32;;;;;;;18.13;15.10;;;9.00;99.90;;;;;;5114949;28;20395;-66
2021/03/18 14:02:57;;;;;;;18.53;15.47;;;8.90;99.90;;;;;;5110817;28;20209;-65
2021/03/18 14:05:24;;;;;;;18.90;16.80;;;8.90;99.90;;;;;;5094829;28;20482;-65
2021/03/18 14:07:49;;;;;;;20.10;15.50;;;8.90;99.90;;;;;;5094673;28;20163;-65
2021/03/18 14:10:16;;;;;;;21.77;18.70;;;8.90;99.90;;;;;;5094414;28;20897;-65
2021/03/18 14:12:42;;;;;;;20.33;18.30;;;9.00;99.90;;;;;;5107020;28;20538;-66
2021/03/18 14:15:12;;;;;;;20.73;18.60;;;9.00;99.90;;;;;;5113823;28;20781;-65
2021/03/18 14:17:40;;;;;;;24.23;19.60;;;8.90;99.90;;;;;;5094075;28;20403;-65